Time;durP1;ratioP1;P1;durP2;ratioP2;P2;SDS_P1;SDS_P2;PMS_P1;PMS_P2;Temp;Humidity;BMP_temperature;BMP_pressure;BME280_temperature;BME280_humidity;BME280_pressure;Samples;Min_cycle;Max_cycle;Signal;HPM_P1;HPM_P2
2022/06/07 00:01:22;;;;;;;;;;;16.00;99.90;;;;;;5072761;28;19932;-74
2022/06/07 00:03:54;;;;;;;;;;;16.00;99.90;;;;;;5067675;28;19939;-74
2022/06/07 00:06:28;;;;;;;;;;;15.90;99.90;;;;;;5081746;28;20309;-74
2022/06/07 00:08:59;;;;;;;;;;;15.80;99.90;;;;;;5087966;28;19975;-74
2022/06/07 00:11:31;;;;;;;;;;;15.70;99.90;;;;;;5087632;28;20396;-74
2022/06/07 00:14:02;;;;;;;;;;;15.70;99.90;;;;;;5077466;28;19931;-74
2022/06/07 00:16:34;;;;;;;;;;;15.70;99.90;;;;;;5084903;28;20379;-73
2022/06/07 00:19:06;;;;;;;;;;;15.70;99.90;;;;;;5074669;28;19924;-73
2022/06/07 00:21:37;;;;;;;;;;;15.70;99.90;;;;;;5092729;28;19925;-74
2022/06/07 00:24:09;;;;;;;;;;;15.70;99.90;;;;;;5071065;28;19928;-74
2022/06/07 00:26:42;;;;;;;;;;;15.60;99.90;;;;;;5092595;28;19934;-74
2022/06/07 00:29:13;;;;;;;;;;;15.60;99.90;;;;;;5058502;28;19927;-74
2022/06/07 00:31:45;;;;;;;;;;;15.60;99.90;;;;;;5107418;28;19951;-74
2022/06/07 00:34:17;;;;;;;;;;;15.50;99.90;;;;;;5074237;28;19924;-74
2022/06/07 00:36:48;;;;;;;;;;;15.50;99.90;;;;;;5063873;28;19928;-74
2022/06/07 00:39:20;;;;;;;;;;;15.40;99.90;;;;;;5087879;28;19924;-74
2022/06/07 00:41:52;;;;;;;;;;;15.40;99.90;;;;;;5095214;28;20281;-74
2022/06/07 00:44:35;;;;;;;;;;;15.40;99.90;;;;;;5097985;28;19947;-74
2022/06/07 00:47:11;;;;;;;;;;;15.40;99.90;;;;;;5062194;28;19924;-74
2022/06/07 00:49:46;;;;;;;;;;;15.60;99.90;;;;;;5054449;28;19931;-74
2022/06/07 00:52:18;;;;;;;;;;;15.60;99.90;;;;;;5071755;28;19924;-74
2022/06/07 00:54:50;;;;;;;;;;;15.70;99.90;;;;;;5071593;28;19929;-74
2022/06/07 00:57:43;;;;;;;;;;;15.70;99.90;;;;;;5058567;28;20389;-73
2022/06/07 01:00:23;;;;;;;;;;;15.70;99.90;;;;;;5063745;28;19924;-73
2022/06/07 01:02:57;;;;;;;;;;;15.70;99.90;;;;;;5037376;28;19971;-74
2022/06/07 01:05:29;;;;;;;;;;;15.60;99.90;;;;;;5053293;28;19931;-74
2022/06/07 01:11:01;;;;;;;;;;;15.70;99.90;;;;;;5055447;28;19925;-74
2022/06/07 01:13:35;;;;;;;;;;;15.60;99.90;;;;;;5083575;28;19967;-74
2022/06/07 01:16:16;;;;;;;;;;;15.60;99.90;;;;;;5091362;28;20019;-74
2022/06/07 01:18:45;;;;;;;;;;;15.60;99.90;;;;;;5073479;28;19924;-74
2022/06/07 01:21:36;;;;;;;;;;;15.50;99.90;;;;;;5090256;28;19934;-73
2022/06/07 01:24:09;;;;;;;;;;;15.60;99.90;;;;;;5074834;28;19954;-73
2022/06/07 01:26:47;;;;;;;;;;;15.60;99.90;;;;;;5073043;28;20456;-73
2022/06/07 01:29:19;;;;;;;;;;;15.60;99.90;;;;;;5057953;28;19925;-74
2022/06/07 01:31:51;;;;;;;;;;;15.50;99.90;;;;;;5068629;28;19978;-74
2022/06/07 01:34:26;;;;;;;;;;;15.50;99.90;;;;;;5080338;28;19963;-74
2022/06/07 01:36:59;;;;;;;;;;;15.40;99.90;;;;;;5094985;28;19928;-74
2022/06/07 01:42:23;;;;;;;;;;;15.30;99.90;;;;;;5088671;28;20423;-74
2022/06/07 01:44:54;;;;;;;;;;;15.40;99.90;;;;;;5064095;28;20011;-74
2022/06/07 01:47:28;;;;;;;;;;;15.40;99.90;;;;;;5101663;28;19928;-74
2022/06/07 01:50:02;;;;;;;;;;;15.30;99.90;;;;;;5068930;28;20277;-73
2022/06/07 01:52:34;;;;;;;;;;;15.20;99.90;;;;;;5074022;28;19931;-73
2022/06/07 01:55:15;;;;;;;;;;;15.20;99.90;;;;;;5105362;28;19935;-73
2022/06/07 01:58:08;;;;;;;;;;;15.30;99.90;;;;;;5090276;28;20284;-74
2022/06/07 02:00:40;;;;;;;;;;;15.30;99.90;;;;;;5062617;28;19947;-74
2022/06/07 02:03:11;;;;;;;;;;;15.30;99.90;;;;;;5110003;28;20487;-74
2022/06/07 02:05:52;;;;;;;;;;;15.30;99.90;;;;;;5057864;28;19924;-74
2022/06/07 02:08:26;;;;;;;;;;;15.30;99.90;;;;;;5090030;28;19928;-74
2022/06/07 02:11:06;;;;;;;;;;;15.20;99.90;;;;;;5089917;28;19924;-73
2022/06/07 02:13:40;;;;;;;;;;;15.20;99.90;;;;;;5069644;28;19932;-74
2022/06/07 02:16:12;;;;;;;;;;;15.20;99.90;;;;;;5084795;28;20356;-73
2022/06/07 02:18:43;;;;;;;;;;;15.10;99.90;;;;;;5076200;28;19971;-73
2022/06/07 02:21:21;;;;;;;;;;;15.20;99.90;;;;;;5069890;28;19928;-73
2022/06/07 02:23:53;;;;;;;;;;;15.20;99.90;;;;;;5072541;28;19924;-74
2022/06/07 02:26:26;;;;;;;;;;;15.20;99.90;;;;;;5060727;28;19931;-74
2022/06/07 02:29:10;;;;;;;;;;;15.20;99.90;;;;;;5073816;28;19928;-73
2022/06/07 02:31:44;;;;;;;;;;;15.20;99.90;;;;;;5056002;28;20354;-73
2022/06/07 02:34:11;;;;;;;;;;;15.20;99.90;;;;;;5055455;28;19924;-73
2022/06/07 02:36:46;;;;;;;;;;;15.20;99.90;;;;;;5089293;28;19925;-73
2022/06/07 02:39:19;;;;;;;;;;;15.10;99.90;;;;;;5042862;28;19924;-74
2022/06/07 02:41:51;;;;;;;;;;;15.20;99.90;;;;;;5088638;28;19971;-73
2022/06/07 02:44:22;;;;;;;;;;;15.20;99.90;;;;;;5057447;28;19932;-73
2022/06/07 02:46:54;;;;;;;;;;;15.20;99.90;;;;;;5072978;28;20027;-73
2022/06/07 02:49:26;;;;;;;;;;;15.10;99.90;;;;;;5073132;28;20312;-73
2022/06/07 02:51:58;;;;;;;;;;;15.10;99.90;;;;;;5085624;28;20398;-74
2022/06/07 02:54:24;;;;;;;;;;;15.10;99.90;;;;;;5073330;28;20384;-74
2022/06/07 02:56:57;;;;;;;;;;;15.10;99.90;;;;;;5101031;28;20015;-73
2022/06/07 02:59:29;;;;;;;;;;;15.20;99.90;;;;;;5072796;28;19931;-73
2022/06/07 03:02:01;;;;;;;;;;;15.10;99.90;;;;;;5088568;28;20397;-74
2022/06/07 03:04:35;;;;;;;;;;;15.10;99.90;;;;;;5099827;28;19950;-74
2022/06/07 03:07:08;;;;;;;;;;;15.10;99.90;;;;;;5072744;28;20499;-74
2022/06/07 03:09:40;;;;;;;;;;;15.10;99.90;;;;;;5101968;28;19977;-74
2022/06/07 03:12:11;;;;;;;;;;;15.20;99.90;;;;;;5082491;28;19963;-73
2022/06/07 03:14:43;;;;;;;;;;;15.20;99.90;;;;;;5080090;28;19924;-74
2022/06/07 03:17:16;;;;;;;;;;;15.20;99.90;;;;;;5090472;28;19931;-74
2022/06/07 03:19:48;;;;;;;;;;;15.30;99.90;;;;;;5068446;28;19978;-73
2022/06/07 03:22:20;;;;;;;;;;;15.30;99.90;;;;;;5091239;28;20258;-73
2022/06/07 03:24:52;;;;;;;;;;;15.30;99.90;;;;;;5059133;28;20377;-74
2022/06/07 03:27:24;;;;;;;;;;;15.30;99.90;;;;;;5086662;28;19928;-74
2022/06/07 03:29:56;;;;;;;;;;;15.30;99.90;;;;;;5103608;28;19982;-73
2022/06/07 03:32:28;;;;;;;;;;;15.30;99.90;;;;;;5086242;28;19973;-74
2022/06/07 03:35:00;;;;;;;;;;;15.30;99.90;;;;;;5102978;28;20377;-74
2022/06/07 03:37:37;;;;;;;;;;;15.30;99.90;;;;;;5072993;28;20299;-74
2022/06/07 03:40:10;;;;;;;;;;;15.30;99.90;;;;;;5073647;28;19924;-74
2022/06/07 03:42:42;;;;;;;;;;;15.20;99.90;;;;;;5087784;28;19998;-74
2022/06/07 03:45:14;;;;;;;;;;;15.20;99.90;;;;;;5092658;28;19924;-74
2022/06/07 03:47:46;;;;;;;;;;;15.20;99.90;;;;;;5052973;28;20020;-74
2022/06/07 03:50:17;;;;;;;;;;;15.20;99.90;;;;;;5097976;28;19924;-73
2022/06/07 03:52:44;;;;;;;;;;;15.20;99.90;;;;;;5063576;28;20024;-74
2022/06/07 03:55:17;;;;;;;;;;;15.20;99.90;;;;;;5065987;28;20015;-74
2022/06/07 03:58:03;;;;;;;;;;;15.30;99.90;;;;;;5054712;28;19925;-74
2022/06/07 04:00:35;;;;;;;;;;;15.30;99.90;;;;;;5092484;28;19924;-75
2022/06/07 04:03:08;;;;;;;;;;;15.30;99.90;;;;;;5100129;28;19967;-75
2022/06/07 04:05:42;;;;;;;;;;;15.30;99.90;;;;;;5085691;28;20392;-74
2022/06/07 04:08:12;;;;;;;;;;;15.30;99.90;;;;;;5073491;28;19924;-74
2022/06/07 04:10:50;;;;;;;;;;;15.40;99.90;;;;;;5072997;28;20376;-74
2022/06/07 04:13:30;;;;;;;;;;;15.40;99.90;;;;;;5083930;28;19928;-74
2022/06/07 04:16:07;;;;;;;;;;;15.40;99.90;;;;;;5070011;28;19924;-74
2022/06/07 04:18:45;;;;;;;;;;;15.40;99.90;;;;;;5103730;27;19924;-74
2022/06/07 04:21:19;;;;;;;;;;;15.40;99.90;;;;;;5082365;28;20277;-74
2022/06/07 04:23:55;;;;;;;;;;;15.50;99.90;;;;;;5073665;28;20476;-74
2022/06/07 04:26:27;;;;;;;;;;;15.50;99.90;;;;;;5078451;28;19924;-74
2022/06/07 04:28:59;;;;;;;;;;;15.50;99.90;;;;;;5076759;28;19942;-74
2022/06/07 04:31:33;;;;;;;;;;;15.50;99.90;;;;;;5072819;28;20022;-74
2022/06/07 04:34:10;;;;;;;;;;;15.40;99.90;;;;;;5069200;28;19932;-74
2022/06/07 04:36:42;;;;;;;;;;;15.30;99.90;;;;;;5068667;28;19939;-74
2022/06/07 04:39:17;;;;;;;;;;;15.20;99.90;;;;;;5056852;28;19963;-74
2022/06/07 04:42:10;;;;;;;;;;;15.20;99.90;;;;;;5072122;28;20023;-74
2022/06/07 04:44:52;;;;;;;;;;;15.10;99.90;;;;;;5076299;28;19931;-74
2022/06/07 04:47:38;;;;;;;;;;;15.20;99.90;;;;;;5098121;28;20392;-74
2022/06/07 04:50:11;;;;;;;;;;;15.20;99.90;;;;;;5073336;28;20541;-73
2022/06/07 04:52:44;;;;;;;;;;;15.20;99.90;;;;;;5057772;28;19924;-74
2022/06/07 04:55:16;;;;;;;;;;;15.20;99.90;;;;;;5074081;28;19983;-74
2022/06/07 04:57:49;;;;;;;;;;;15.20;99.90;;;;;;5057677;28;19930;-74
2022/06/07 05:00:21;;;;;;;;;;;15.20;99.90;;;;;;5086528;28;19924;-74
2022/06/07 05:02:58;;;;;;;;;;;15.20;99.90;;;;;;5070452;28;20331;-73
2022/06/07 05:05:33;;;;;;;;;;;15.20;99.90;;;;;;5063226;28;20300;-74
2022/06/07 05:08:12;;;;;;;;;;;15.20;99.90;;;;;;5090776;28;19932;-72
2022/06/07 05:10:45;;;;;;;;;;;15.20;99.90;;;;;;5112040;28;19924;-74
2022/06/07 05:13:17;;;;;;;;;;;15.20;99.90;;;;;;5100635;28;19943;-74
2022/06/07 05:15:53;;;;;;;;;;;15.20;99.90;;;;;;5075923;28;19924;-73
2022/06/07 05:18:28;;;;;;;;;;;15.10;99.90;;;;;;5082451;28;20531;-74
2022/06/07 05:21:03;;;;;;;;;;;15.10;99.90;;;;;;5085323;28;19956;-73
2022/06/07 05:23:35;;;;;;;;;;;15.20;99.90;;;;;;5070814;28;19928;-74
2022/06/07 05:26:29;;;;;;;;;;;15.10;99.90;;;;;;5112816;28;20339;-74
2022/06/07 05:29:03;;;;;;;;;;;15.10;99.90;;;;;;5074482;28;19951;-74
2022/06/07 05:31:35;;;;;;;;;;;15.10;99.90;;;;;;5073308;28;20406;-73
2022/06/07 05:34:08;;;;;;;;;;;15.10;99.90;;;;;;5064289;28;20558;-74
2022/06/07 05:36:41;;;;;;;;;;;15.10;99.90;;;;;;5053478;28;20311;-74
2022/06/07 05:39:18;;;;;;;;;;;15.10;99.90;;;;;;5072268;28;19924;-74
2022/06/07 05:41:51;;;;;;;;;;;15.10;99.90;;;;;;5073049;28;19928;-74
2022/06/07 05:44:24;;;;;;;;;;;15.10;99.90;;;;;;5089353;28;19935;-74
2022/06/07 05:46:59;;;;;;;;;;;15.10;99.90;;;;;;5082953;28;19924;-73
2022/06/07 05:49:40;;;;;;;;;;;15.10;99.90;;;;;;5079473;28;19931;-73
2022/06/07 05:52:16;;;;;;;;;;;15.00;99.90;;;;;;5078839;28;19973;-74
2022/06/07 05:54:50;;;;;;;;;;;15.00;99.90;;;;;;5085089;28;19924;-73
2022/06/07 05:57:21;;;;;;;;;;;15.00;99.90;;;;;;5069280;28;19928;-73
2022/06/07 05:59:53;;;;;;;;;;;15.10;99.90;;;;;;5103000;28;20068;-73
2022/06/07 06:02:25;;;;;;;;;;;15.00;99.90;;;;;;5088694;28;20376;-73
2022/06/07 06:04:57;;;;;;;;;;;15.00;99.90;;;;;;5057669;28;19924;-74
2022/06/07 06:07:28;;;;;;;;;;;15.00;99.90;;;;;;5102260;27;19928;-73
2022/06/07 06:12:58;;;;;;;;;;;15.10;99.90;;;;;;5066891;28;19956;-74
2022/06/07 06:15:30;;;;;;;;;;;15.10;99.90;;;;;;5090545;28;19956;-73
2022/06/07 06:18:04;;;;;;;;;;;15.10;99.90;;;;;;5078977;28;19930;-73
2022/06/07 06:20:40;;;;;;;;;;;15.10;99.90;;;;;;5124847;27;19924;-73
2022/06/07 06:23:18;;;;;;;;;;;15.00;99.90;;;;;;5070901;28;19932;-73
2022/06/07 06:25:51;;;;;;;;;;;15.00;99.90;;;;;;5071259;28;19932;-73
2022/06/07 06:28:23;;;;;;;;;;;14.90;99.90;;;;;;5076989;28;20014;-73
2022/06/07 06:31:00;;;;;;;;;;;14.90;99.90;;;;;;5105491;27;20377;-73
2022/06/07 06:33:29;;;;;;;;;;;14.80;99.90;;;;;;5081823;28;20312;-73
2022/06/07 06:36:00;;;;;;;;;;;14.80;99.90;;;;;;5090382;28;19947;-75
2022/06/07 06:38:35;;;;;;;;;;;14.80;99.90;;;;;;5094161;27;20026;-73
2022/06/07 06:41:08;;;;;;;;;;;14.70;99.90;;;;;;5084728;28;20313;-73
2022/06/07 06:43:42;;;;;;;;;;;14.70;99.90;;;;;;5063628;28;19968;-73
2022/06/07 06:46:32;;;;;;;;;;;14.70;99.90;;;;;;5089712;28;19924;-73
2022/06/07 06:49:05;;;;;;;;;;;14.60;99.90;;;;;;5059745;28;19932;-73
2022/06/07 06:51:33;;;;;;;;;;;14.70;99.90;;;;;;5083395;28;20448;-73
2022/06/07 06:54:07;;;;;;;;;;;14.70;99.90;;;;;;5097635;28;19959;-73
2022/06/07 06:56:51;;;;;;;;;;;14.60;99.90;;;;;;5064971;28;20347;-73
2022/06/07 06:59:27;;;;;;;;;;;14.50;99.90;;;;;;5087884;28;19932;-73
2022/06/07 07:02:00;;;;;;;;;;;14.40;99.90;;;;;;5098673;28;19999;-73
2022/06/07 07:04:50;;;;;;;;;;;14.40;99.90;;;;;;5088525;28;19939;-73
2022/06/07 07:07:23;;;;;;;;;;;14.30;99.90;;;;;;5068690;28;20076;-72
2022/06/07 07:09:57;;;;;;;;;;;14.30;99.90;;;;;;5063879;28;20016;-73
2022/06/07 07:12:31;;;;;;;;;;;14.30;99.90;;;;;;5050064;28;20215;-72
2022/06/07 07:15:07;;;;;;;;;;;14.30;99.90;;;;;;5062299;28;20297;-73
2022/06/07 07:18:08;;;;;;;;;;;14.30;99.90;;;;;;5063920;28;19924;-73
2022/06/07 07:20:46;;;;;;;;;;;14.30;99.90;;;;;;5063601;28;19928;-73
2022/06/07 07:23:19;;;;;;;;;;;14.20;99.90;;;;;;5089681;28;19931;-73
2022/06/07 07:25:51;;;;;;;;;;;14.20;99.90;;;;;;5099660;28;20475;-73
2022/06/07 07:28:22;;;;;;;;;;;14.10;99.90;;;;;;5055780;28;19965;-74
2022/06/07 07:30:59;;;;;;;;;;;13.90;99.90;;;;;;5081881;28;20315;-72
2022/06/07 07:33:31;;;;;;;;;;;13.90;99.90;;;;;;5091793;28;20385;-73
2022/06/07 07:36:04;;;;;;;;;;;13.80;99.90;;;;;;5086904;28;19931;-73
2022/06/07 07:38:36;;;;;;;;;;;13.80;99.90;;;;;;5093169;28;19969;-73
2022/06/07 07:41:14;;;;;;;;;;;13.80;99.90;;;;;;5090875;28;19928;-73
2022/06/07 07:43:47;;;;;;;;;;;13.80;99.90;;;;;;5061869;28;19928;-73
2022/06/07 07:46:23;;;;;;;;;;;13.80;99.90;;;;;;5071670;28;19925;-74
2022/06/07 07:48:55;;;;;;;;;;;13.80;99.90;;;;;;5063602;28;19931;-73
2022/06/07 07:51:28;;;;;;;;;;;13.80;99.90;;;;;;5068654;28;19982;-73
2022/06/07 07:54:01;;;;;;;;;;;13.80;99.90;;;;;;5078573;28;19928;-72
2022/06/07 07:56:33;;;;;;;;;;;13.90;99.90;;;;;;5074297;28;19935;-73
2022/06/07 07:59:07;;;;;;;;;;;13.90;99.90;;;;;;5092582;28;19932;-73
2022/06/07 08:01:39;;;;;;;;;;;14.00;99.90;;;;;;5066360;28;19928;-75
2022/06/07 08:04:11;;;;;;;;;;;14.00;99.90;;;;;;5087482;28;19924;-73
2022/06/07 08:06:48;;;;;;;;;;;14.10;99.90;;;;;;5053351;28;20377;-73
2022/06/07 08:09:22;;;;;;;;;;;14.20;99.90;;;;;;5066971;28;20408;-73
2022/06/07 08:11:53;;;;;;;;;;;14.20;99.90;;;;;;5080483;28;19939;-73
2022/06/07 08:14:25;;;;;;;;;;;14.20;99.90;;;;;;5089107;28;19931;-72
2022/06/07 08:16:57;;;;;;;;;;;14.20;99.90;;;;;;5062439;28;20309;-73
2022/06/07 08:19:28;;;;;;;;;;;14.20;99.90;;;;;;5077163;28;19925;-74
2022/06/07 08:22:00;;;;;;;;;;;14.20;99.90;;;;;;5076489;28;19924;-74
2022/06/07 08:24:32;;;;;;;;;;;14.20;99.90;;;;;;5076305;28;19935;-74
2022/06/07 08:27:04;;;;;;;;;;;14.30;99.90;;;;;;5089612;28;19971;-74
2022/06/07 08:29:36;;;;;;;;;;;14.30;99.90;;;;;;5080684;28;20006;-74
2022/06/07 08:32:08;;;;;;;;;;;14.30;99.90;;;;;;5052049;28;19924;-74
2022/06/07 08:37:38;;;;;;;;;;;14.30;99.90;;;;;;5035248;28;20282;-74
2022/06/07 08:40:14;;;;;;;;;;;14.40;99.90;;;;;;5076949;28;19924;-74
2022/06/07 08:42:52;;;;;;;;;;;14.40;99.90;;;;;;5053496;28;20376;-74
2022/06/07 08:45:26;;;;;;;;;;;14.40;99.90;;;;;;5078155;28;19960;-74
2022/06/07 08:47:55;;;;;;;;;;;14.40;99.90;;;;;;5086877;28;20462;-74
2022/06/07 08:50:32;;;;;;;;;;;14.60;99.90;;;;;;5069149;28;20258;-74
2022/06/07 08:53:23;;;;;;;;;;;14.80;99.90;;;;;;5060239;28;19924;-74
2022/06/07 08:55:57;;;;;;;;;;;15.00;99.90;;;;;;5085856;28;19935;-74
2022/06/07 08:58:33;;;;;;;;;;;15.00;99.90;;;;;;5059084;28;19924;-74
2022/06/07 09:01:14;;;;;;;;;;;15.20;99.90;;;;;;5087567;28;20344;-74
2022/06/07 09:03:51;;;;;;;;;;;15.30;99.90;;;;;;5051972;28;20312;-74
2022/06/07 09:06:24;;;;;;;;;;;15.40;99.90;;;;;;5067898;28;19951;-74
2022/06/07 09:08:57;;;;;;;;;;;15.50;99.90;;;;;;5064431;28;19934;-74
2022/06/07 09:14:32;;;;;;;;;;;15.40;99.90;;;;;;5081094;28;19924;-74
2022/06/07 09:17:05;;;;;;;;;;;15.50;99.90;;;;;;5092135;28;19931;-74
2022/06/07 09:19:38;;;;;;;;;;;15.60;99.90;;;;;;5049952;28;20308;-74
2022/06/07 09:22:18;;;;;;;;;;;15.70;99.90;;;;;;5086016;28;19925;-74
2022/06/07 09:24:53;;;;;;;;;;;15.90;99.90;;;;;;5086063;28;19924;-74
2022/06/07 09:27:21;;;;;;;;;;;16.00;99.90;;;;;;5046814;28;19934;-73
2022/06/07 09:29:54;;;;;;;;;;;16.20;99.90;;;;;;5053381;28;19928;-73
2022/06/07 09:32:27;;;;;;;;;;;16.20;99.90;;;;;;5078701;28;20391;-74
2022/06/07 09:35:05;;;;;;;;;;;16.20;99.90;;;;;;5070516;28;20274;-73
2022/06/07 09:37:45;;;;;;;;;;;16.20;99.90;;;;;;5096385;28;19931;-74
2022/06/07 09:40:20;;;;;;;;;;;16.20;99.90;;;;;;5089479;28;20479;-74
2022/06/07 09:43:18;;;;;;;;;;;16.20;99.90;;;;;;5087146;28;19934;-74
2022/06/07 09:46:05;;;;;;;;;;;16.30;99.90;;;;;;5073027;28;19930;-74
2022/06/07 09:48:38;;;;;;;;;;;16.50;99.90;;;;;;5087517;28;19925;-74
2022/06/07 09:51:16;;;;;;;;;;;16.70;99.90;;;;;;5059419;28;19931;-74
2022/06/07 09:53:57;;;;;;;;;;;16.70;99.90;;;;;;5061649;28;19928;-74
2022/06/07 09:56:24;;;;;;;;;;;16.70;99.90;;;;;;5101130;28;19930;-73
2022/06/07 09:59:06;;;;;;;;;;;16.70;99.90;;;;;;5071859;28;20483;-73
2022/06/07 10:01:47;;;;;;;;;;;16.90;99.90;;;;;;5079651;28;19928;-74
2022/06/07 10:04:51;;;;;;;;;;;16.70;99.90;;;;;;5059728;28;20492;-74
2022/06/07 10:07:27;;;;;;;;;;;16.90;99.90;;;;;;5045503;28;20355;-74
2022/06/07 10:10:19;;;;;;;;;;;17.20;99.90;;;;;;5090844;28;19932;-74
2022/06/07 10:13:03;;;;;;;;;;;17.40;99.90;;;;;;5065407;28;19931;-74
2022/06/07 10:15:37;;;;;;;;;;;17.60;99.90;;;;;;5076424;28;19924;-74
2022/06/07 10:18:15;;;;;;;;;;;17.70;99.90;;;;;;5084533;28;19924;-74
2022/06/07 10:21:08;;;;;;;;;;;17.90;99.90;;;;;;5091430;28;20018;-74
2022/06/07 10:23:55;;;;;;;;;;;17.90;99.90;;;;;;5065884;28;20297;-74
2022/06/07 10:26:34;;;;;;;;;;;17.90;99.90;;;;;;5072002;28;20292;-73
2022/06/07 10:29:19;;;;;;;;;;;17.80;99.90;;;;;;5084199;28;19928;-74
2022/06/07 10:31:55;;;;;;;;;;;17.70;99.90;;;;;;5090376;28;19925;-74
2022/06/07 10:34:36;;;;;;;;;;;17.70;99.90;;;;;;5056265;28;20297;-73
2022/06/07 10:37:23;;;;;;;;;;;17.70;99.90;;;;;;5069371;28;19924;-74
2022/06/07 10:39:56;;;;;;;;;;;17.80;99.90;;;;;;5069244;28;20308;-73
2022/06/07 10:42:34;;;;;;;;;;;17.80;99.90;;;;;;5071418;28;20014;-73
2022/06/07 10:45:12;;;;;;;;;;;17.90;99.90;;;;;;5071395;28;19931;-74
2022/06/07 10:47:46;;;;;;;;;;;17.90;99.90;;;;;;5077581;28;19934;-74
2022/06/07 10:50:36;;;;;;;;;;;18.00;99.90;;;;;;5057926;28;19929;-74
2022/06/07 10:53:10;;;;;;;;;;;18.20;99.90;;;;;;5079717;28;19936;-74
2022/06/07 10:55:45;;;;;;;;;;;18.40;99.90;;;;;;5075152;28;19975;-73
2022/06/07 10:58:24;;;;;;;;;;;18.70;99.90;;;;;;5083552;28;19932;-74
2022/06/07 11:01:02;;;;;;;;;;;18.80;99.90;;;;;;5089871;28;20388;-73
2022/06/07 11:03:43;;;;;;;;;;;18.90;99.90;;;;;;5096729;28;19928;-74
2022/06/07 11:09:22;;;;;;;;;;;19.10;99.90;;;;;;5097524;28;20309;-73
2022/06/07 11:11:58;;;;;;;;;;;19.20;99.90;;;;;;5072012;28;19932;-73
2022/06/07 11:14:37;;;;;;;;;;;19.30;99.90;;;;;;5084962;28;19929;-73
2022/06/07 11:17:16;;;;;;;;;;;19.40;99.90;;;;;;5071312;28;20020;-73
2022/06/07 11:19:49;;;;;;;;;;;19.40;99.90;;;;;;5067133;28;19925;-73
2022/06/07 11:22:19;;;;;;;;;;;19.50;99.90;;;;;;5087092;28;19970;-73
2022/06/07 11:24:57;;;;;;;;;;;19.60;99.90;;;;;;5070669;28;19950;-74
2022/06/07 11:27:30;;;;;;;;;;;19.90;99.90;;;;;;5084629;28;19924;-74
2022/06/07 11:30:34;;;;;;;;;;;20.10;99.90;;;;;;5051956;28;19928;-74
2022/06/07 11:33:25;;;;;;;;;;;19.90;99.90;;;;;;5029579;28;19928;-73
2022/06/07 11:36:23;;;;;;;;;;;19.70;99.90;;;;;;5086454;28;20392;-74
2022/06/07 11:38:57;;;;;;;;;;;19.70;99.90;;;;;;5064484;28;20300;-73
2022/06/07 11:41:44;;;;;;;;;;;19.70;99.90;;;;;;5074401;28;19930;-73
2022/06/07 11:44:15;;;;;;;;;;;19.70;99.90;;;;;;5062605;28;19924;-73
2022/06/07 11:46:47;;;;;;;;;;;19.60;99.90;;;;;;5055745;28;19925;-73
2022/06/07 11:49:23;;;;;;;;;;;19.70;99.90;;;;;;5079755;28;19924;-73
2022/06/07 11:52:13;;;;;;;;;;;19.80;99.90;;;;;;5071194;28;19943;-73
2022/06/07 11:54:54;;;;;;;;;;;19.80;99.90;;;;;;5071255;28;20314;-73
2022/06/07 11:57:31;;;;;;;;;;;19.80;99.90;;;;;;5070083;28;19975;-73
2022/06/07 12:00:18;;;;;;;;;;;19.90;99.90;;;;;;5100815;28;19925;-73
2022/06/07 12:03:08;;;;;;;;;;;20.00;99.90;;;;;;5065218;28;19924;-73
2022/06/07 12:05:54;;;;;;;;;;;20.00;99.90;;;;;;5065132;28;19978;-73
2022/06/07 12:08:33;;;;;;;;;;;20.00;99.90;;;;;;5075344;28;20240;-73
2022/06/07 12:11:20;;;;;;;;;;;20.20;99.90;;;;;;5082712;28;19928;-74
2022/06/07 12:13:58;;;;;;;;;;;20.40;99.90;;;;;;5076071;28;20297;-73
2022/06/07 12:16:42;;;;;;;;;;;20.40;99.90;;;;;;5078289;28;19925;-73
2022/06/07 12:19:18;;;;;;;;;;;20.20;99.90;;;;;;5060190;28;19928;-73
2022/06/07 12:21:51;;;;;;;;;;;20.00;99.90;;;;;;5073112;28;19932;-73
2022/06/07 12:24:23;;;;;;;;;;;20.00;99.90;;;;;;5060775;28;19928;-73
2022/06/07 12:26:55;;;;;;;;;;;20.20;99.90;;;;;;5072543;28;19931;-74
2022/06/07 12:29:29;;;;;;;;;;;20.40;99.90;;;;;;5068363;28;19939;-73
2022/06/07 12:32:06;;;;;;;;;;;20.50;99.90;;;;;;5094720;28;19928;-73
2022/06/07 12:34:38;;;;;;;;;;;20.50;99.90;;;;;;5092349;28;19931;-73
2022/06/07 12:37:09;;;;;;;;;;;20.60;99.90;;;;;;5074829;28;20377;-74
2022/06/07 12:39:44;;;;;;;;;;;20.80;99.90;;;;;;5075590;28;20308;-73
2022/06/07 12:42:18;;;;;;;;;;;20.70;99.90;;;;;;5102251;27;20006;-73
2022/06/07 12:44:53;;;;;;;;;;;20.80;99.90;;;;;;5087861;28;20369;-73
2022/06/07 12:47:35;;;;;;;;;;;20.70;99.90;;;;;;5065968;28;19932;-73
2022/06/07 12:50:18;;;;;;;;;;;20.90;99.90;;;;;;5077504;28;19931;-74
2022/06/07 12:52:51;;;;;;;;;;;21.00;99.90;;;;;;5073202;28;19950;-73
2022/06/07 12:55:28;;;;;;;;;;;21.20;99.90;;;;;;5045708;28;20442;-73
2022/06/07 12:58:06;;;;;;;;;;;21.40;99.90;;;;;;5094503;28;19931;-73
2022/06/07 13:00:42;;;;;;;;;;;21.50;99.90;;;;;;5053588;28;19987;-73
2022/06/07 13:03:29;;;;;;;;;;;21.60;99.90;;;;;;5097610;28;19933;-73
2022/06/07 13:06:14;;;;;;;;;;;21.60;99.90;;;;;;5082863;28;19931;-73
2022/06/07 13:09:14;;;;;;;;;;;21.60;99.90;;;;;;5090875;28;19932;-73
2022/06/07 13:11:41;;;;;;;;;;;21.80;99.90;;;;;;5072961;28;19928;-74
2022/06/07 13:14:14;;;;;;;;;;;21.70;99.90;;;;;;5084795;28;19963;-74
2022/06/07 13:16:46;;;;;;;;;;;21.90;99.90;;;;;;5073871;28;19932;-74
2022/06/07 13:19:21;;;;;;;;;;;22.10;99.90;;;;;;5106618;27;20468;-74
2022/06/07 13:21:59;;;;;;;;;;;22.20;99.90;;;;;;5076150;28;19924;-74
2022/06/07 13:24:42;;;;;;;;;;;22.30;99.90;;;;;;5093004;28;19924;-74
2022/06/07 13:27:40;;;;;;;;;;;22.20;99.90;;;;;;5077756;28;19931;-74
2022/06/07 13:30:12;;;;;;;;;;;22.00;99.90;;;;;;5078284;28;19928;-74
2022/06/07 13:32:44;;;;;;;;;;;21.70;99.90;;;;;;5077543;28;19981;-73
2022/06/07 13:35:24;;;;;;;;;;;21.60;99.90;;;;;;5088347;28;19928;-74
2022/06/07 13:38:01;;;;;;;;;;;21.50;99.90;;;;;;5078995;28;19928;-73
2022/06/07 13:40:33;;;;;;;;;;;21.40;99.90;;;;;;5089727;28;19928;-74
2022/06/07 13:43:11;;;;;;;;;;;21.30;99.90;;;;;;5074188;28;19928;-74
2022/06/07 13:45:45;;;;;;;;;;;21.50;99.90;;;;;;5073256;28;20593;-74
2022/06/07 13:48:21;;;;;;;;;;;21.40;99.90;;;;;;5064757;28;19951;-73
2022/06/07 13:53:55;;;;;;;;;;;21.30;99.90;;;;;;5091421;28;19932;-74
2022/06/07 13:56:29;;;;;;;;;;;21.20;99.90;;;;;;5085519;28;20395;-74
2022/06/07 13:59:02;;;;;;;;;;;21.10;99.90;;;;;;5095712;28;20836;-74
2022/06/07 14:01:35;;;;;;;;;;;20.90;99.90;;;;;;5065171;28;19931;-74
2022/06/07 14:04:04;;;;;;;;;;;21.00;99.90;;;;;;5063966;28;19924;-74
2022/06/07 14:06:38;;;;;;;;;;;21.00;99.90;;;;;;5086132;28;20281;-74
2022/06/07 14:09:19;;;;;;;;;;;20.90;99.90;;;;;;5073263;28;19928;-74
2022/06/07 14:11:53;;;;;;;;;;;20.80;99.90;;;;;;5097723;28;19959;-73
2022/06/07 14:14:25;;;;;;;;;;;20.80;99.90;;;;;;5087855;28;19967;-73
2022/06/07 14:17:00;;;;;;;;;;;20.80;99.90;;;;;;5097387;28;19982;-73
2022/06/07 14:19:44;;;;;;;;;;;20.80;99.90;;;;;;5102781;28;20372;-74
2022/06/07 14:22:24;;;;;;;;;;;20.90;99.90;;;;;;5070352;28;19928;-74
2022/06/07 14:24:56;;;;;;;;;;;21.00;99.90;;;;;;5085777;28;19982;-73
2022/06/07 14:27:28;;;;;;;;;;;21.20;99.90;;;;;;5077164;28;19924;-73
2022/06/07 14:30:00;;;;;;;;;;;21.20;99.90;;;;;;5085014;28;20296;-74
2022/06/07 14:32:35;;;;;;;;;;;21.30;99.90;;;;;;5082963;28;19928;-74
2022/06/07 14:35:17;;;;;;;;;;;21.30;99.90;;;;;;5063355;28;19931;-73
2022/06/07 14:37:54;;;;;;;;;;;21.30;99.90;;;;;;5076375;28;19970;-74
2022/06/07 14:40:31;;;;;;;;;;;21.60;99.90;;;;;;5067236;28;19967;-74
2022/06/07 14:42:58;;;;;;;;;;;21.70;99.90;;;;;;5066967;28;19935;-74
2022/06/07 14:45:26;;;;;;;;;;;21.60;99.90;;;;;;5071735;28;19954;-74
2022/06/07 14:48:00;;;;;;;;;;;21.60;99.90;;;;;;5094843;28;19950;-74
2022/06/07 14:50:27;;;;;;;;;;;21.40;99.90;;;;;;5094526;28;20315;-73
2022/06/07 14:52:59;;;;;;;;;;;21.40;99.90;;;;;;5102232;27;19944;-73
2022/06/07 14:55:31;;;;;;;;;;;21.40;99.90;;;;;;5085192;28;19952;-73
2022/06/07 14:58:02;;;;;;;;;;;21.30;99.90;;;;;;5082103;28;19928;-73
2022/06/07 15:00:34;;;;;;;;;;;21.20;99.90;;;;;;5071733;28;19930;-73
2022/06/07 15:03:06;;;;;;;;;;;21.20;99.90;;;;;;5072561;28;19928;-73
2022/06/07 15:05:40;;;;;;;;;;;21.20;99.90;;;;;;5078407;28;19930;-73
2022/06/07 15:08:14;;;;;;;;;;;21.20;99.90;;;;;;5090026;28;19971;-73
2022/06/07 15:10:45;;;;;;;;;;;21.20;99.90;;;;;;5066058;28;20571;-73
2022/06/07 15:13:23;;;;;;;;;;;21.10;99.90;;;;;;5081380;28;19928;-73
2022/06/07 15:15:59;;;;;;;;;;;21.20;99.90;;;;;;5100439;28;19931;-74
2022/06/07 15:18:29;;;;;;;;;;;21.30;99.90;;;;;;5084619;28;19924;-73
2022/06/07 15:21:01;;;;;;;;;;;21.20;99.90;;;;;;5082218;28;19924;-73
2022/06/07 15:23:33;;;;;;;;;;;21.20;99.90;;;;;;5078728;28;19933;-73
2022/06/07 15:26:04;;;;;;;;;;;21.20;99.90;;;;;;5069049;28;19956;-73